sensor_id;sensor_type;location;lat;lon;timestamp;P1;durP1;ratioP1;P2;durP2;ratioP2
42666;SDS011;28280;49.646;14.130;2022-10-16T00:03:18;3.05;;;2.33;;
42666;SDS011;28280;49.646;14.130;2022-10-16T00:08:49;3.00;;;2.10;;
42666;SDS011;28280;49.646;14.130;2022-10-16T00:14:21;2.67;;;2.22;;
42666;SDS011;28280;49.646;14.130;2022-10-16T00:19:51;2.85;;;2.25;;
42666;SDS011;28280;49.646;14.130;2022-10-16T00:25:22;2.97;;;2.13;;
42666;SDS011;28280;49.646;14.130;2022-10-16T00:30:54;3.45;;;2.28;;
42666;SDS011;28280;49.646;14.130;2022-10-16T00:36:25;3.65;;;2.10;;
42666;SDS011;28280;49.646;14.130;2022-10-16T00:41:57;2.70;;;1.92;;
42666;SDS011;28280;49.646;14.130;2022-10-16T00:47:36;3.33;;;2.00;;
42666;SDS011;28280;49.646;14.130;2022-10-16T00:53:10;3.85;;;2.30;;
42666;SDS011;28280;49.646;14.130;2022-10-16T00:58:42;3.03;;;2.17;;
42666;SDS011;28280;49.646;14.130;2022-10-16T01:04:13;5.57;;;2.97;;
42666;SDS011;28280;49.646;14.130;2022-10-16T01:15:51;4.85;;;2.10;;
42666;SDS011;28280;49.646;14.130;2022-10-16T01:21:43;3.53;;;1.80;;
42666;SDS011;28280;49.646;14.130;2022-10-16T01:27:28;2.45;;;1.90;;
42666;SDS011;28280;49.646;14.130;2022-10-16T01:33:02;3.28;;;2.05;;
42666;SDS011;28280;49.646;14.130;2022-10-16T01:38:54;2.38;;;1.90;;
42666;SDS011;28280;49.646;14.130;2022-10-16T01:44:29;3.50;;;1.92;;
42666;SDS011;28280;49.646;14.130;2022-10-16T01:50:03;2.75;;;1.85;;
42666;SDS011;28280;49.646;14.130;2022-10-16T01:55:36;3.30;;;2.20;;
42666;SDS011;28280;49.646;14.130;2022-10-16T02:01:09;2.47;;;1.65;;
42666;SDS011;28280;49.646;14.130;2022-10-16T02:06:42;3.22;;;2.08;;
42666;SDS011;28280;49.646;14.130;2022-10-16T02:17:58;2.78;;;1.88;;
42666;SDS011;28280;49.646;14.130;2022-10-16T02:29:17;2.67;;;1.95;;
42666;SDS011;28280;49.646;14.130;2022-10-16T02:34:49;3.05;;;1.90;;
42666;SDS011;28280;49.646;14.130;2022-10-16T02:40:21;3.63;;;2.20;;
42666;SDS011;28280;49.646;14.130;2022-10-16T02:45:55;2.47;;;1.80;;
42666;SDS011;28280;49.646;14.130;2022-10-16T02:51:26;2.40;;;1.88;;
42666;SDS011;28280;49.646;14.130;2022-10-16T02:56:57;2.42;;;1.83;;
42666;SDS011;28280;49.646;14.130;2022-10-16T03:02:28;3.03;;;2.30;;
42666;SDS011;28280;49.646;14.130;2022-10-16T03:07:59;2.17;;;1.77;;
42666;SDS011;28280;49.646;14.130;2022-10-16T03:13:31;2.05;;;1.60;;
42666;SDS011;28280;49.646;14.130;2022-10-16T03:19:02;3.08;;;1.80;;
42666;SDS011;28280;49.646;14.130;2022-10-16T03:24:33;2.25;;;1.77;;
42666;SDS011;28280;49.646;14.130;2022-10-16T03:30:05;2.10;;;1.63;;
42666;SDS011;28280;49.646;14.130;2022-10-16T03:35:36;2.58;;;1.80;;
42666;SDS011;28280;49.646;14.130;2022-10-16T03:41:08;3.20;;;1.85;;
42666;SDS011;28280;49.646;14.130;2022-10-16T03:46:39;2.15;;;1.63;;
42666;SDS011;28280;49.646;14.130;2022-10-16T03:52:10;2.28;;;1.50;;
42666;SDS011;28280;49.646;14.130;2022-10-16T03:57:41;2.33;;;1.60;;
42666;SDS011;28280;49.646;14.130;2022-10-16T04:03:12;2.10;;;1.58;;
42666;SDS011;28280;49.646;14.130;2022-10-16T04:08:43;2.10;;;1.40;;
42666;SDS011;28280;49.646;14.130;2022-10-16T04:14:14;2.50;;;1.70;;
42666;SDS011;28280;49.646;14.130;2022-10-16T04:19:46;1.83;;;1.45;;
42666;SDS011;28280;49.646;14.130;2022-10-16T04:25:17;2.53;;;1.70;;
42666;SDS011;28280;49.646;14.130;2022-10-16T04:30:48;2.58;;;1.90;;
42666;SDS011;28280;49.646;14.130;2022-10-16T04:36:19;3.83;;;1.70;;
42666;SDS011;28280;49.646;14.130;2022-10-16T04:41:54;4.85;;;1.67;;
42666;SDS011;28280;49.646;14.130;2022-10-16T04:47:25;2.80;;;1.52;;
42666;SDS011;28280;49.646;14.130;2022-10-16T04:52:57;2.53;;;1.80;;
42666;SDS011;28280;49.646;14.130;2022-10-16T04:58:28;1.83;;;1.50;;
42666;SDS011;28280;49.646;14.130;2022-10-16T05:03:59;2.20;;;1.70;;
42666;SDS011;28280;49.646;14.130;2022-10-16T05:09:30;4.00;;;1.60;;
42666;SDS011;28280;49.646;14.130;2022-10-16T05:15:02;2.45;;;1.52;;
42666;SDS011;28280;49.646;14.130;2022-10-16T05:20:34;2.20;;;1.50;;
42666;SDS011;28280;49.646;14.130;2022-10-16T05:26:05;1.80;;;1.63;;
42666;SDS011;28280;49.646;14.130;2022-10-16T05:31:36;3.92;;;1.50;;
42666;SDS011;28280;49.646;14.130;2022-10-16T05:37:08;2.25;;;1.60;;
42666;SDS011;28280;49.646;14.130;2022-10-16T05:42:39;2.22;;;1.48;;
42666;SDS011;28280;49.646;14.130;2022-10-16T05:48:11;2.30;;;1.50;;
42666;SDS011;28280;49.646;14.130;2022-10-16T05:53:41;1.95;;;1.40;;
42666;SDS011;28280;49.646;14.130;2022-10-16T05:59:14;1.83;;;1.45;;
42666;SDS011;28280;49.646;14.130;2022-10-16T06:04:45;2.55;;;1.63;;
42666;SDS011;28280;49.646;14.130;2022-10-16T06:10:16;2.60;;;1.70;;
42666;SDS011;28280;49.646;14.130;2022-10-16T06:15:47;1.60;;;1.20;;
42666;SDS011;28280;49.646;14.130;2022-10-16T06:21:19;1.73;;;1.40;;
42666;SDS011;28280;49.646;14.130;2022-10-16T06:32:22;2.55;;;1.40;;
42666;SDS011;28280;49.646;14.130;2022-10-16T06:37:53;3.83;;;1.50;;
42666;SDS011;28280;49.646;14.130;2022-10-16T06:43:24;1.85;;;1.20;;
42666;SDS011;28280;49.646;14.130;2022-10-16T06:48:56;1.52;;;1.23;;
42666;SDS011;28280;49.646;14.130;2022-10-16T06:54:27;2.58;;;1.50;;
42666;SDS011;28280;49.646;14.130;2022-10-16T06:59:58;1.85;;;1.33;;
42666;SDS011;28280;49.646;14.130;2022-10-16T07:05:29;2.00;;;1.35;;
42666;SDS011;28280;49.646;14.130;2022-10-16T07:11:00;2.05;;;1.58;;
42666;SDS011;28280;49.646;14.130;2022-10-16T07:16:33;2.55;;;1.60;;
42666;SDS011;28280;49.646;14.130;2022-10-16T07:22:04;3.03;;;1.50;;
42666;SDS011;28280;49.646;14.130;2022-10-16T07:27:35;1.85;;;1.30;;
42666;SDS011;28280;49.646;14.130;2022-10-16T07:33:12;1.95;;;1.40;;
42666;SDS011;28280;49.646;14.130;2022-10-16T07:38:43;1.92;;;1.35;;
42666;SDS011;28280;49.646;14.130;2022-10-16T07:44:15;2.00;;;1.30;;
42666;SDS011;28280;49.646;14.130;2022-10-16T07:49:46;2.00;;;1.50;;
42666;SDS011;28280;49.646;14.130;2022-10-16T07:55:17;2.33;;;1.50;;
42666;SDS011;28280;49.646;14.130;2022-10-16T08:00:48;3.15;;;1.48;;
42666;SDS011;28280;49.646;14.130;2022-10-16T08:06:20;2.17;;;1.50;;
42666;SDS011;28280;49.646;14.130;2022-10-16T08:11:57;2.58;;;1.30;;
42666;SDS011;28280;49.646;14.130;2022-10-16T08:17:32;3.33;;;1.50;;
42666;SDS011;28280;49.646;14.130;2022-10-16T08:23:03;1.55;;;1.17;;
42666;SDS011;28280;49.646;14.130;2022-10-16T08:28:34;2.25;;;1.50;;
42666;SDS011;28280;49.646;14.130;2022-10-16T08:34:07;1.83;;;1.30;;
42666;SDS011;28280;49.646;14.130;2022-10-16T08:39:38;2.97;;;1.48;;
42666;SDS011;28280;49.646;14.130;2022-10-16T08:45:19;1.75;;;1.45;;
42666;SDS011;28280;49.646;14.130;2022-10-16T08:50:55;3.58;;;1.58;;
42666;SDS011;28280;49.646;14.130;2022-10-16T08:56:26;1.75;;;1.25;;
42666;SDS011;28280;49.646;14.130;2022-10-16T09:01:58;2.17;;;1.50;;
42666;SDS011;28280;49.646;14.130;2022-10-16T09:13:17;1.63;;;1.25;;
42666;SDS011;28280;49.646;14.130;2022-10-16T09:18:54;2.65;;;1.27;;
42666;SDS011;28280;49.646;14.130;2022-10-16T09:24:30;2.17;;;1.50;;
42666;SDS011;28280;49.646;14.130;2022-10-16T09:30:06;1.52;;;1.17;;
42666;SDS011;28280;49.646;14.130;2022-10-16T09:35:45;1.83;;;1.40;;
42666;SDS011;28280;49.646;14.130;2022-10-16T09:41:20;1.90;;;1.20;;
42666;SDS011;28280;49.646;14.130;2022-10-16T09:47:02;2.08;;;1.35;;
42666;SDS011;28280;49.646;14.130;2022-10-16T09:52:43;2.42;;;1.42;;
42666;SDS011;28280;49.646;14.130;2022-10-16T09:58:15;2.40;;;1.65;;
42666;SDS011;28280;49.646;14.130;2022-10-16T10:03:46;2.33;;;1.63;;
42666;SDS011;28280;49.646;14.130;2022-10-16T10:14:54;2.55;;;1.60;;
42666;SDS011;28280;49.646;14.130;2022-10-16T10:20:27;2.85;;;1.20;;
42666;SDS011;28280;49.646;14.130;2022-10-16T10:26:20;1.55;;;1.25;;
42666;SDS011;28280;49.646;14.130;2022-10-16T10:49:14;2.40;;;1.30;;
42666;SDS011;28280;49.646;14.130;2022-10-16T10:55:00;3.95;;;1.27;;
42666;SDS011;28280;49.646;14.130;2022-10-16T11:06:45;3.38;;;1.40;;
42666;SDS011;28280;49.646;14.130;2022-10-16T11:12:27;2.05;;;1.27;;
42666;SDS011;28280;49.646;14.130;2022-10-16T11:18:11;1.40;;;1.05;;
42666;SDS011;28280;49.646;14.130;2022-10-16T11:24:11;1.63;;;1.02;;
42666;SDS011;28280;49.646;14.130;2022-10-16T11:29:44;2.50;;;1.10;;
42666;SDS011;28280;49.646;14.130;2022-10-16T11:35:25;1.45;;;1.05;;
42666;SDS011;28280;49.646;14.130;2022-10-16T11:47:13;2.95;;;1.15;;
42666;SDS011;28280;49.646;14.130;2022-10-16T11:53:31;7.60;;;1.27;;
42666;SDS011;28280;49.646;14.130;2022-10-16T11:59:32;1.83;;;1.20;;
42666;SDS011;28280;49.646;14.130;2022-10-16T12:10:52;1.00;;;0.80;;
42666;SDS011;28280;49.646;14.130;2022-10-16T12:16:23;1.70;;;1.23;;
42666;SDS011;28280;49.646;14.130;2022-10-16T12:21:58;2.90;;;1.20;;
42666;SDS011;28280;49.646;14.130;2022-10-16T12:27:32;2.30;;;1.20;;
42666;SDS011;28280;49.646;14.130;2022-10-16T12:33:05;1.20;;;0.90;;
42666;SDS011;28280;49.646;14.130;2022-10-16T12:38:38;2.97;;;1.20;;
42666;SDS011;28280;49.646;14.130;2022-10-16T12:44:22;1.33;;;1.02;;
42666;SDS011;28280;49.646;14.130;2022-10-16T12:49:55;3.15;;;1.13;;
42666;SDS011;28280;49.646;14.130;2022-10-16T12:55:26;2.20;;;1.20;;
42666;SDS011;28280;49.646;14.130;2022-10-16T13:00:59;1.75;;;1.10;;
42666;SDS011;28280;49.646;14.130;2022-10-16T13:12:41;1.52;;;1.20;;
42666;SDS011;28280;49.646;14.130;2022-10-16T13:30:15;2.47;;;1.38;;
42666;SDS011;28280;49.646;14.130;2022-10-16T13:35:59;2.05;;;1.02;;
42666;SDS011;28280;49.646;14.130;2022-10-16T13:41:30;2.70;;;1.20;;
42666;SDS011;28280;49.646;14.130;2022-10-16T13:47:02;1.23;;;0.95;;
42666;SDS011;28280;49.646;14.130;2022-10-16T13:52:33;2.05;;;1.20;;
42666;SDS011;28280;49.646;14.130;2022-10-16T13:58:08;2.30;;;1.00;;
42666;SDS011;28280;49.646;14.130;2022-10-16T14:03:43;1.77;;;1.10;;
42666;SDS011;28280;49.646;14.130;2022-10-16T14:09:20;1.67;;;1.20;;
42666;SDS011;28280;49.646;14.130;2022-10-16T14:14:54;1.75;;;1.10;;
42666;SDS011;28280;49.646;14.130;2022-10-16T14:20:27;1.50;;;1.10;;
42666;SDS011;28280;49.646;14.130;2022-10-16T14:31:40;1.58;;;1.17;;
42666;SDS011;28280;49.646;14.130;2022-10-16T14:37:23;1.52;;;0.93;;
42666;SDS011;28280;49.646;14.130;2022-10-16T14:42:58;1.35;;;1.00;;
42666;SDS011;28280;49.646;14.130;2022-10-16T14:48:30;1.45;;;0.88;;
42666;SDS011;28280;49.646;14.130;2022-10-16T14:54:01;1.88;;;1.20;;
42666;SDS011;28280;49.646;14.130;2022-10-16T14:59:37;1.33;;;1.13;;
42666;SDS011;28280;49.646;14.130;2022-10-16T15:10:55;1.25;;;1.02;;
42666;SDS011;28280;49.646;14.130;2022-10-16T15:16:26;1.80;;;1.08;;
42666;SDS011;28280;49.646;14.130;2022-10-16T15:21:57;1.73;;;1.08;;
42666;SDS011;28280;49.646;14.130;2022-10-16T15:27:28;1.70;;;0.95;;
42666;SDS011;28280;49.646;14.130;2022-10-16T15:32:59;2.05;;;1.20;;
42666;SDS011;28280;49.646;14.130;2022-10-16T15:38:31;1.45;;;1.00;;
42666;SDS011;28280;49.646;14.130;2022-10-16T15:44:02;3.35;;;1.17;;
42666;SDS011;28280;49.646;14.130;2022-10-16T15:49:32;2.45;;;1.10;;
42666;SDS011;28280;49.646;14.130;2022-10-16T15:55:03;1.48;;;1.05;;
42666;SDS011;28280;49.646;14.130;2022-10-16T16:00:35;2.15;;;1.10;;
42666;SDS011;28280;49.646;14.130;2022-10-16T16:06:07;2.15;;;1.20;;
42666;SDS011;28280;49.646;14.130;2022-10-16T16:11:40;1.95;;;1.00;;
42666;SDS011;28280;49.646;14.130;2022-10-16T16:17:12;1.40;;;1.10;;
42666;SDS011;28280;49.646;14.130;2022-10-16T16:22:43;1.40;;;1.05;;
42666;SDS011;28280;49.646;14.130;2022-10-16T16:28:14;3.15;;;1.10;;
42666;SDS011;28280;49.646;14.130;2022-10-16T16:33:45;5.75;;;1.08;;
42666;SDS011;28280;49.646;14.130;2022-10-16T16:39:16;2.22;;;1.08;;
42666;SDS011;28280;49.646;14.130;2022-10-16T16:44:48;2.35;;;1.60;;
42666;SDS011;28280;49.646;14.130;2022-10-16T16:50:19;2.10;;;1.30;;
42666;SDS011;28280;49.646;14.130;2022-10-16T16:55:51;2.00;;;1.30;;
42666;SDS011;28280;49.646;14.130;2022-10-16T17:01:22;2.63;;;1.40;;
42666;SDS011;28280;49.646;14.130;2022-10-16T17:06:55;4.57;;;1.50;;
42666;SDS011;28280;49.646;14.130;2022-10-16T17:12:28;1.52;;;1.20;;
42666;SDS011;28280;49.646;14.130;2022-10-16T17:18:00;5.47;;;1.35;;
42666;SDS011;28280;49.646;14.130;2022-10-16T17:23:31;1.75;;;1.20;;
42666;SDS011;28280;49.646;14.130;2022-10-16T17:29:04;2.97;;;1.30;;
42666;SDS011;28280;49.646;14.130;2022-10-16T17:34:36;2.10;;;1.40;;
42666;SDS011;28280;49.646;14.130;2022-10-16T17:40:08;1.90;;;1.27;;
42666;SDS011;28280;49.646;14.130;2022-10-16T17:45:40;1.92;;;1.40;;
42666;SDS011;28280;49.646;14.130;2022-10-16T17:51:12;1.95;;;1.30;;
42666;SDS011;28280;49.646;14.130;2022-10-16T17:56:45;1.80;;;1.40;;
42666;SDS011;28280;49.646;14.130;2022-10-16T18:02:18;2.88;;;1.42;;
42666;SDS011;28280;49.646;14.130;2022-10-16T18:07:49;2.63;;;1.67;;
42666;SDS011;28280;49.646;14.130;2022-10-16T18:13:21;2.63;;;1.48;;
42666;SDS011;28280;49.646;14.130;2022-10-16T18:18:53;4.55;;;1.63;;
42666;SDS011;28280;49.646;14.130;2022-10-16T18:24:26;2.33;;;1.55;;
42666;SDS011;28280;49.646;14.130;2022-10-16T18:29:58;2.00;;;1.42;;
42666;SDS011;28280;49.646;14.130;2022-10-16T18:35:30;2.47;;;1.60;;
42666;SDS011;28280;49.646;14.130;2022-10-16T18:41:01;4.28;;;1.73;;
42666;SDS011;28280;49.646;14.130;2022-10-16T18:46:35;2.72;;;1.80;;
42666;SDS011;28280;49.646;14.130;2022-10-16T18:52:07;3.35;;;1.42;;
42666;SDS011;28280;49.646;14.130;2022-10-16T18:57:38;3.92;;;1.67;;
42666;SDS011;28280;49.646;14.130;2022-10-16T19:03:09;3.63;;;1.40;;
42666;SDS011;28280;49.646;14.130;2022-10-16T19:08:41;2.20;;;1.50;;
42666;SDS011;28280;49.646;14.130;2022-10-16T19:14:13;3.15;;;1.40;;
42666;SDS011;28280;49.646;14.130;2022-10-16T19:19:46;3.05;;;1.40;;
42666;SDS011;28280;49.646;14.130;2022-10-16T19:25:17;2.30;;;1.80;;
42666;SDS011;28280;49.646;14.130;2022-10-16T19:30:48;2.75;;;1.60;;
42666;SDS011;28280;49.646;14.130;2022-10-16T19:36:23;3.75;;;1.65;;
42666;SDS011;28280;49.646;14.130;2022-10-16T19:41:56;2.22;;;1.60;;
42666;SDS011;28280;49.646;14.130;2022-10-16T19:47:27;3.47;;;1.55;;
42666;SDS011;28280;49.646;14.130;2022-10-16T19:52:58;3.83;;;1.70;;
42666;SDS011;28280;49.646;14.130;2022-10-16T19:58:30;3.67;;;1.80;;
42666;SDS011;28280;49.646;14.130;2022-10-16T20:04:01;3.75;;;2.10;;
42666;SDS011;28280;49.646;14.130;2022-10-16T20:09:32;2.83;;;1.80;;
42666;SDS011;28280;49.646;14.130;2022-10-16T20:15:05;3.90;;;1.67;;
42666;SDS011;28280;49.646;14.130;2022-10-16T20:20:37;2.72;;;1.80;;
42666;SDS011;28280;49.646;14.130;2022-10-16T20:26:10;3.28;;;2.17;;
42666;SDS011;28280;49.646;14.130;2022-10-16T20:31:41;2.58;;;1.70;;
42666;SDS011;28280;49.646;14.130;2022-10-16T20:37:13;3.30;;;2.28;;
42666;SDS011;28280;49.646;14.130;2022-10-16T20:42:45;3.10;;;2.08;;
42666;SDS011;28280;49.646;14.130;2022-10-16T20:48:16;4.85;;;2.15;;
42666;SDS011;28280;49.646;14.130;2022-10-16T20:53:51;2.40;;;1.98;;
42666;SDS011;28280;49.646;14.130;2022-10-16T20:59:26;4.07;;;2.33;;
42666;SDS011;28280;49.646;14.130;2022-10-16T21:04:57;3.65;;;2.58;;
42666;SDS011;28280;49.646;14.130;2022-10-16T21:10:28;3.58;;;2.33;;
42666;SDS011;28280;49.646;14.130;2022-10-16T21:16:01;4.10;;;2.70;;
42666;SDS011;28280;49.646;14.130;2022-10-16T21:21:36;4.18;;;2.60;;
42666;SDS011;28280;49.646;14.130;2022-10-16T21:27:08;4.10;;;2.10;;
42666;SDS011;28280;49.646;14.130;2022-10-16T21:32:39;3.80;;;2.83;;
42666;SDS011;28280;49.646;14.130;2022-10-16T21:38:10;4.63;;;2.83;;
42666;SDS011;28280;49.646;14.130;2022-10-16T21:43:41;6.18;;;2.70;;
42666;SDS011;28280;49.646;14.130;2022-10-16T21:49:15;3.72;;;2.97;;
42666;SDS011;28280;49.646;14.130;2022-10-16T21:54:47;4.25;;;3.08;;
42666;SDS011;28280;49.646;14.130;2022-10-16T22:00:18;6.32;;;3.42;;
42666;SDS011;28280;49.646;14.130;2022-10-16T22:05:49;3.50;;;2.63;;
42666;SDS011;28280;49.646;14.130;2022-10-16T22:11:29;6.03;;;3.22;;
42666;SDS011;28280;49.646;14.130;2022-10-16T22:17:06;4.35;;;3.10;;
42666;SDS011;28280;49.646;14.130;2022-10-16T22:22:37;5.00;;;2.97;;
42666;SDS011;28280;49.646;14.130;2022-10-16T22:28:08;4.78;;;3.35;;
42666;SDS011;28280;49.646;14.130;2022-10-16T22:33:39;8.55;;;3.63;;
42666;SDS011;28280;49.646;14.130;2022-10-16T22:39:11;4.50;;;3.50;;
42666;SDS011;28280;49.646;14.130;2022-10-16T22:44:42;5.18;;;3.67;;
42666;SDS011;28280;49.646;14.130;2022-10-16T22:50:13;5.97;;;3.90;;
42666;SDS011;28280;49.646;14.130;2022-10-16T22:55:44;5.05;;;4.07;;
42666;SDS011;28280;49.646;14.130;2022-10-16T23:01:22;6.15;;;4.80;;
42666;SDS011;28280;49.646;14.130;2022-10-16T23:06:58;9.90;;;5.47;;
42666;SDS011;28280;49.646;14.130;2022-10-16T23:12:29;7.07;;;5.32;;
42666;SDS011;28280;49.646;14.130;2022-10-16T23:18:01;7.00;;;5.68;;
42666;SDS011;28280;49.646;14.130;2022-10-16T23:23:33;7.72;;;5.43;;
42666;SDS011;28280;49.646;14.130;2022-10-16T23:29:05;7.95;;;6.10;;
42666;SDS011;28280;49.646;14.130;2022-10-16T23:34:37;8.07;;;6.00;;
42666;SDS011;28280;49.646;14.130;2022-10-16T23:40:08;9.25;;;6.97;;
42666;SDS011;28280;49.646;14.130;2022-10-16T23:45:40;11.80;;;7.75;;
42666;SDS011;28280;49.646;14.130;2022-10-16T23:51:12;12.43;;;8.20;;
42666;SDS011;28280;49.646;14.130;2022-10-16T23:56:43;12.25;;;8.90;;
